Time;durP1;ratioP1;P1;durP2;ratioP2;P2;SDS_P1;SDS_P2;PMS_P1;PMS_P2;Temp;Humidity;BMP_temperature;BMP_pressure;BME280_temperature;BME280_humidity;BME280_pressure;Samples;Min_cycle;Max_cycle;Signal;HPM_P1;HPM_P2
2021/07/18 00:00:55;;;;;;;;;33.50;31.25;;;;;28.23;70.37;100461.59;5094755;28;8855;-77
2021/07/18 00:03:50;;;;;;;;;38.00;34.25;;;;;28.29;70.13;100459.75;5081278;28;8828;-77
2021/07/18 00:06:46;;;;;;;;;32.80;31.00;;;;;27.97;71.75;100453.09;5112798;28;8833;-77
2021/07/18 00:09:42;;;;;;;;;33.75;31.75;;;;;28.20;71.50;100446.22;5101217;28;8829;-75
2021/07/18 00:12:37;;;;;;;;;36.20;32.00;;;;;28.37;70.59;100457.47;5115862;28;8964;-75
2021/07/18 00:15:33;;;;;;;;;35.50;32.25;;;;;28.31;70.78;100454.44;5115481;28;8822;-75
2021/07/18 00:18:29;;;;;;;;;32.40;31.00;;;;;28.30;70.47;100449.22;5101118;28;9676;-75
2021/07/18 00:21:24;;;;;;;;;25.40;25.40;;;;;28.40;70.68;100448.84;5114962;28;8983;-75
2021/07/18 00:24:20;;;;;;;;;34.00;31.80;;;;;28.47;69.88;100453.50;5113000;28;8829;-75
2021/07/18 00:27:16;;;;;;;;;31.20;30.20;;;;;28.47;69.83;100457.13;5114681;28;8864;-75
2021/07/18 00:30:12;;;;;;;;;39.60;35.20;;;;;28.50;69.83;100461.09;5094261;28;8886;-75
2021/07/18 00:33:07;;;;;;;;;34.00;32.00;;;;;28.59;69.70;100451.84;5097242;28;8827;-75
2021/07/18 00:36:03;;;;;;;;;35.25;32.00;;;;;28.61;69.36;100461.50;5113784;28;9558;-76
2021/07/18 00:38:59;;;;;;;;;34.40;32.00;;;;;28.69;68.99;100451.47;5113793;28;8871;-75
2021/07/18 00:41:54;;;;;;;;;29.20;28.80;;;;;28.58;69.04;100453.88;5101041;28;8861;-75
2021/07/18 00:44:50;;;;;;;;;42.60;37.00;;;;;28.50;69.25;100447.66;5114360;28;8841;-76
2021/07/18 00:47:45;;;;;;;;;36.80;33.60;;;;;28.31;69.57;100445.91;5115291;28;9161;-75
2021/07/18 00:50:44;;;;;;;;;35.00;32.60;;;;;28.51;69.29;100449.25;5113795;28;8857;-75
2021/07/18 00:53:39;;;;;;;;;36.60;33.60;;;;;28.46;69.82;100447.00;5093838;28;8839;-75
2021/07/18 00:56:35;;;;;;;;;38.40;34.60;;;;;28.48;70.21;100455.88;5093853;28;8863;-75
2021/07/18 00:59:31;;;;;;;;;37.60;34.20;;;;;28.11;69.67;100453.88;5079935;28;8835;-76
2021/07/18 01:02:27;;;;;;;;;45.75;39.25;;;;;27.63;70.53;100455.81;5080295;28;8823;-76
2021/07/18 01:05:23;;;;;;;;;25.00;25.00;;;;;27.86;70.70;100455.50;5101964;28;8841;-75
2021/07/18 01:08:19;;;;;;;;;47.00;39.25;;;;;27.80;71.39;100460.16;5113594;28;8825;-75
2021/07/18 01:11:15;;;;;;;;;42.75;36.75;;;;;27.89;71.54;100465.94;5114780;28;8907;-76
2021/07/18 01:14:11;;;;;;;;;39.25;35.00;;;;;27.74;71.82;100453.44;5081709;28;8844;-76
2021/07/18 01:17:06;;;;;;;;;36.50;33.25;;;;;28.14;71.31;100468.00;5093202;28;9639;-76
2021/07/18 01:20:05;;;;;;;;;34.25;32.00;;;;;28.37;70.73;100464.00;5093607;28;9604;-76
2021/07/18 01:23:00;;;;;;;;;35.80;32.80;;;;;28.37;70.42;100458.31;5093747;28;8835;-76
2021/07/18 01:25:56;;;;;;;;;44.75;37.50;;;;;28.19;70.91;100456.03;5093287;28;9615;-76
2021/07/18 01:28:53;;;;;;;;;35.40;32.40;;;;;28.19;71.57;100452.38;5080770;28;8862;-76
2021/07/18 01:31:49;;;;;;;;;41.75;36.75;;;;;28.18;71.05;100459.31;5093871;28;8835;-77
2021/07/18 01:34:44;;;;;;;;;42.40;36.60;;;;;28.26;70.81;100458.63;5092824;28;8975;-76
2021/07/18 01:37:40;;;;;;;;;43.60;37.60;;;;;28.35;70.53;100457.94;5092953;28;8936;-76
2021/07/18 01:40:36;;;;;;;;;42.25;37.00;;;;;28.29;70.82;100456.91;5092639;28;9626;-76
2021/07/18 01:43:32;;;;;;;;;43.25;37.25;;;;;28.37;70.62;100460.31;5103382;28;8825;-76
2021/07/18 01:46:35;;;;;;;;;43.50;37.50;;;;;28.41;70.43;100464.63;5095149;28;8832;-75
2021/07/18 01:49:30;;;;;;;;;34.25;31.50;;;;;28.29;69.47;100461.78;5092239;28;8867;-76
2021/07/18 01:52:26;;;;;;;;;46.75;38.75;;;;;28.31;69.76;100467.88;5079783;28;9739;-76
2021/07/18 01:55:22;;;;;;;;;47.25;40.25;;;;;28.36;70.00;100468.06;5093217;28;8835;-76
2021/07/18 01:58:18;;;;;;;;;43.50;36.50;;;;;28.44;69.72;100479.97;5092340;28;8843;-76
2021/07/18 02:01:15;;;;;;;;;47.00;40.00;;;;;28.38;70.19;100474.09;5092598;28;8846;-76
2021/07/18 02:04:14;;;;;;;;;45.25;37.75;;;;;28.42;69.73;100477.59;5092367;28;8851;-76
2021/07/18 02:07:09;;;;;;;;;39.25;35.00;;;;;28.10;70.07;100472.19;5093822;28;8827;-76
2021/07/18 02:10:06;;;;;;;;;46.00;39.00;;;;;28.18;70.83;100477.19;5093880;28;8952;-76
2021/07/18 02:13:02;;;;;;;;;44.25;37.50;;;;;28.08;70.89;100480.38;5107702;28;8841;-77
2021/07/18 02:16:02;;;;;;;;;49.00;41.50;;;;;27.53;71.35;100485.34;5113009;28;8817;-76
2021/07/18 02:19:06;;;;;;;;;44.25;38.00;;;;;27.92;71.51;100479.25;5099104;28;8841;-76
2021/07/18 02:22:02;;;;;;;;;48.25;40.50;;;;;28.06;70.49;100477.97;5097694;28;8839;-76
2021/07/18 02:24:58;;;;;;;;;46.75;39.50;;;;;27.96;70.48;100481.97;5093344;28;8842;-76
2021/07/18 02:27:55;;;;;;;;;46.00;38.50;;;;;27.92;71.59;100482.09;5093112;28;8866;-76
2021/07/18 02:30:50;;;;;;;;;49.00;41.75;;;;;27.96;71.13;100484.81;5092625;28;8835;-76
2021/07/18 02:33:46;;;;;;;;;47.75;40.75;;;;;27.56;71.77;100475.94;5092535;28;8883;-76
2021/07/18 02:36:41;;;;;;;;;43.50;37.50;;;;;27.66;72.29;100471.94;5110732;28;8910;-76
2021/07/18 02:39:37;;;;;;;;;46.75;39.00;;;;;27.53;73.15;100476.81;5112703;28;9626;-76
2021/07/18 02:42:33;;;;;;;;;55.25;45.25;;;;;27.41;72.51;100486.91;5092109;28;8843;-76
2021/07/18 02:45:30;;;;;;;;;53.50;45.00;;;;;27.29;72.80;100499.03;5080047;28;8867;-76
2021/07/18 02:48:26;;;;;;;;;56.75;46.75;;;;;27.01;73.46;100495.75;5092949;28;8820;-76
2021/07/18 02:51:21;;;;;;;;;45.50;39.25;;;;;27.18;74.65;100502.19;5107884;28;8913;-75
2021/07/18 02:54:17;;;;;;;;;51.50;43.50;;;;;27.36;73.61;100504.50;5111946;28;8853;-76
2021/07/18 02:57:14;;;;;;;;;53.00;43.50;;;;;27.56;72.24;100495.81;5112304;28;9558;-76
2021/07/18 03:00:13;;;;;;;;;49.25;41.75;;;;;27.76;72.37;100496.44;5112596;28;8861;-76
2021/07/18 03:03:08;;;;;;;;;47.25;40.00;;;;;27.91;72.74;100496.75;5116381;28;9678;-75
2021/07/18 03:06:04;;;;;;;;;50.75;43.00;;;;;27.36;71.69;100499.63;5116402;28;8837;-76
2021/07/18 03:09:00;;;;;;;;;48.25;40.50;;;;;27.47;72.82;100509.88;5116239;28;8829;-75
2021/07/18 03:11:56;;;;;;;;;45.25;38.75;;;;;27.80;72.31;100493.47;5115894;28;8829;-76
2021/07/18 03:14:51;;;;;;;;;49.75;42.50;;;;;27.86;71.41;100486.75;5116717;28;8830;-76
2021/07/18 03:17:47;;;;;;;;;47.25;40.50;;;;;27.77;71.58;100489.50;5113311;28;8837;-76
2021/07/18 03:20:43;;;;;;;;;49.25;41.50;;;;;27.79;71.80;100486.19;5111498;28;8862;-76
2021/07/18 03:23:38;;;;;;;;;50.75;43.00;;;;;27.55;71.07;100492.16;5095375;28;8892;-77
2021/07/18 03:26:34;;;;;;;;;49.25;39.75;;;;;27.54;72.44;100495.47;5102022;28;8857;-76
2021/07/18 03:29:30;;;;;;;;;44.50;38.50;;;;;27.77;71.81;100486.66;5115687;28;8844;-76
2021/07/18 03:32:26;;;;;;;;;49.00;41.75;;;;;27.89;71.32;100490.72;5115711;28;8833;-76
2021/07/18 03:35:22;;;;;;;;;47.00;39.25;;;;;28.13;70.83;100500.47;5096304;28;8982;-76
2021/07/18 03:38:18;;;;;;;;;48.75;40.75;;;;;28.09;70.31;100493.34;5095052;28;8843;-76
2021/07/18 03:41:14;;;;;;;;;45.50;39.25;;;;;28.05;71.05;100495.50;5095303;28;9576;-76
2021/07/18 03:44:09;;;;;;;;;47.50;40.50;;;;;28.05;69.45;100496.28;5095519;28;8855;-76
2021/07/18 03:47:06;;;;;;;;;46.25;40.00;;;;;28.00;70.33;100493.25;5095171;28;8859;-75
2021/07/18 03:50:03;;;;;;;;;46.25;37.75;;;;;27.67;70.21;100487.75;5095099;28;8859;-76
2021/07/18 03:52:59;;;;;;;;;44.25;38.00;;;;;27.70;70.91;100495.41;5095470;28;8855;-76
2021/07/18 03:55:55;;;;;;;;;44.25;38.25;;;;;27.83;70.79;100499.03;5095060;28;8951;-76
2021/07/18 03:58:51;;;;;;;;;35.60;32.60;;;;;27.84;70.11;100499.84;5095454;28;8835;-75
2021/07/18 04:01:47;;;;;;;;;46.00;39.25;;;;;27.63;70.84;100499.22;5105923;28;8930;-76
2021/07/18 04:04:42;;;;;;;;;41.00;35.80;;;;;27.66;69.17;100491.81;5114961;28;8818;-75
2021/07/18 04:07:38;;;;;;;;;43.25;37.25;;;;;27.86;70.23;100495.28;5114948;28;9598;-76
2021/07/18 04:10:34;;;;;;;;;45.50;35.75;;;;;27.90;69.19;100495.16;5115358;28;8829;-75
2021/07/18 04:13:29;;;;;;;;;43.75;37.75;;;;;28.12;70.03;100489.56;5101625;28;8872;-76
2021/07/18 04:16:25;;;;;;;;;45.50;38.00;;;;;28.00;69.15;100496.88;5115529;28;8856;-75
2021/07/18 04:19:20;;;;;;;;;43.00;36.75;;;;;28.41;69.61;100486.59;5114711;28;8849;-76
2021/07/18 04:22:16;;;;;;;;;41.00;33.50;;;;;28.30;68.21;100491.88;5097969;28;8824;-76
2021/07/18 04:25:12;;;;;;;;;31.20;29.20;;;;;28.04;67.35;100491.84;5098908;28;8917;-76
2021/07/18 04:28:07;;;;;;;;;33.40;31.20;;;;;28.32;67.46;100483.66;5114605;28;8825;-76
2021/07/18 04:31:03;;;;;;;;;35.60;32.60;;;;;28.38;67.01;100493.22;5113384;28;8843;-76
2021/07/18 04:33:59;;;;;;;;;30.00;29.40;;;;;28.40;66.78;100491.50;5101209;28;8844;-76
2021/07/18 04:36:54;;;;;;;;;35.80;32.80;;;;;28.52;66.12;100499.22;5114723;28;8973;-76
2021/07/18 04:39:50;;;;;;;;;38.20;34.20;;;;;28.60;67.58;100493.25;5114593;28;8965;-76
2021/07/18 04:42:45;;;;;;;;;35.00;32.20;;;;;28.55;67.41;100496.69;5115377;28;8856;-76
2021/07/18 04:45:41;;;;;;;;;41.60;35.40;;;;;28.64;67.96;100491.09;5114558;28;8830;-75
2021/07/18 04:48:37;;;;;;;;;34.80;31.80;;;;;28.76;67.62;100491.06;5114373;28;8821;-76
2021/07/18 04:51:33;;;;;;;;;38.20;34.40;;;;;28.73;65.57;100500.50;5114330;28;9586;-76
2021/07/18 04:54:29;;;;;;;;;42.00;36.00;;;;;28.75;66.19;100497.19;5114258;28;8856;-75
2021/07/18 04:57:25;;;;;;;;;38.40;34.40;;;;;28.95;66.59;100506.25;5114599;28;8841;-76
2021/07/18 05:00:22;;;;;;;;;38.80;34.60;;;;;28.97;64.45;100502.94;5113342;28;8841;-76
2021/07/18 05:03:18;;;;;;;;;36.80;33.60;;;;;29.20;66.00;100502.47;5116063;28;8914;-75
2021/07/18 05:06:14;;;;;;;;;34.80;32.00;;;;;29.17;65.16;100502.63;5101387;28;8941;-76
2021/07/18 05:09:09;;;;;;;;;35.20;32.40;;;;;29.28;65.50;100503.78;5097858;28;8842;-76
2021/07/18 05:12:05;;;;;;;;;32.20;30.60;;;;;29.48;65.33;100503.44;5113784;28;8849;-76
2021/07/18 05:15:01;;;;;;;;;34.80;32.20;;;;;29.59;64.31;100503.84;5096571;28;8959;-76
2021/07/18 05:17:58;;;;;;;;;38.60;34.80;;;;;29.63;64.20;100500.88;5093402;28;8831;-76
2021/07/18 05:20:54;;;;;;;;;35.20;32.60;;;;;29.80;64.02;100507.13;5100357;28;8825;-77
2021/07/18 05:23:50;;;;;;;;;35.80;33.00;;;;;29.87;63.30;100507.63;5092198;28;8835;-76
2021/07/18 05:26:45;;;;;;;;;32.00;30.60;;;;;29.66;61.89;100510.53;5101999;28;8860;-76
2021/07/18 05:29:41;;;;;;;;;37.40;33.80;;;;;29.85;62.30;100509.38;5093621;28;8915;-75
2021/07/18 05:32:38;;;;;;;;;37.40;33.80;;;;;29.67;61.61;100512.09;5095731;28;8854;-74
2021/07/18 05:35:33;;;;;;;;;37.80;34.20;;;;;29.99;62.21;100505.94;5092512;28;8846;-75
2021/07/18 05:38:29;;;;;;;;;37.40;33.60;;;;;30.13;62.09;100505.34;5093261;28;8823;-76
2021/07/18 05:41:25;;;;;;;;;32.20;31.00;;;;;30.31;60.45;100503.84;5072525;28;8849;-75
2021/07/18 05:44:21;;;;;;;;;33.40;31.60;;;;;30.40;59.46;100509.56;5072642;28;8861;-75
2021/07/18 05:47:17;;;;;;;;;49.40;41.20;;;;;30.44;59.41;100518.75;5078376;28;8900;-75
2021/07/18 05:50:13;;;;;;;;;42.60;37.20;;;;;30.53;58.98;100512.28;5087953;28;9549;-76
2021/07/18 05:53:10;;;;;;;;;31.00;30.20;;;;;30.61;57.13;100516.41;5073733;28;8852;-75
2021/07/18 05:56:06;;;;;;;;;28.20;28.00;;;;;30.72;55.88;100511.06;5072228;28;8847;-75
2021/07/18 05:59:02;;;;;;;;;29.40;29.00;;;;;30.94;54.82;100510.91;5072942;28;8864;-75
2021/07/18 06:01:59;;;;;;;;;28.00;28.00;;;;;30.93;55.67;100512.97;5072666;28;8849;-76
2021/07/18 06:04:54;;;;;;;;;24.00;24.00;;;;;30.77;55.55;100513.28;5072032;28;8920;-75
2021/07/18 06:07:50;;;;;;;;;24.80;24.80;;;;;31.12;54.27;100505.16;5072094;28;8874;-75
2021/07/18 06:10:48;;;;;;;;;29.80;29.00;;;;;31.37;55.00;100506.94;5072136;28;8833;-75
2021/07/18 06:13:43;;;;;;;;;24.20;24.20;;;;;31.45;53.77;100501.66;5072818;28;8817;-76
2021/07/18 06:16:39;;;;;;;;;25.40;25.40;;;;;31.62;53.65;100500.03;5059761;28;8853;-76
2021/07/18 06:19:34;;;;;;;;;25.80;25.80;;;;;31.76;52.95;100495.69;5072264;28;9583;-76
2021/07/18 06:22:30;;;;;;;;;27.80;27.80;;;;;31.66;53.10;100492.06;5058934;28;8837;-75
2021/07/18 06:25:26;;;;;;;;;24.00;24.00;;;;;31.70;53.92;100495.56;5087866;28;8875;-75
2021/07/18 06:28:21;;;;;;;;;25.80;25.80;;;;;31.79;53.70;100491.88;5072743;28;8864;-75
2021/07/18 06:31:17;;;;;;;;;21.60;21.60;;;;;31.93;52.69;100487.53;5080617;28;8850;-75
2021/07/18 06:34:12;;;;;;;;;23.40;23.40;;;;;32.18;51.16;100481.34;5073588;28;8842;-75
2021/07/18 06:37:09;;;;;;;;;28.60;28.40;;;;;32.24;51.45;100482.28;5076033;28;8852;-76
2021/07/18 06:40:07;;;;;;;;;26.20;26.20;;;;;32.31;51.87;100481.13;5072368;28;8837;-76
2021/07/18 06:43:03;;;;;;;;;22.20;22.20;;;;;32.30;51.07;100483.22;5076632;28;8809;-75
2021/07/18 06:45:58;;;;;;;;;22.40;22.40;;;;;32.48;50.59;100475.78;5071628;28;9597;-76
2021/07/18 06:48:54;;;;;;;;;23.60;23.60;;;;;32.71;50.24;100486.44;5058138;28;8822;-76
2021/07/18 06:51:49;;;;;;;;;29.20;28.80;;;;;32.73;51.79;100481.00;5075998;28;8902;-75
2021/07/18 06:54:45;;;;;;;;;33.20;31.00;;;;;33.00;52.05;100476.34;5065562;28;9022;-76
2021/07/18 06:57:51;;;;;;;;;39.00;34.80;;;;;32.95;52.92;100477.81;5068312;28;8808;-75
2021/07/18 07:00:47;;;;;;;;;40.20;35.40;;;;;33.01;52.06;100466.47;5077444;28;8857;-76
2021/07/18 07:03:42;;;;;;;;;39.60;34.20;;;;;32.90;51.82;100467.06;5073637;28;8834;-76
2021/07/18 07:06:39;;;;;;;;;44.80;36.60;;;;;33.04;52.41;100466.25;5079675;28;8827;-77
2021/07/18 07:09:35;;;;;;;;;46.00;39.60;;;;;33.10;52.18;100469.25;5080486;28;8833;-75
2021/07/18 07:12:30;;;;;;;;;47.80;39.00;;;;;33.23;51.84;100471.81;5073661;28;8922;-75
2021/07/18 07:15:26;;;;;;;;;48.00;40.20;;;;;33.65;52.13;100469.44;5071782;28;8842;-76
2021/07/18 07:18:21;;;;;;;;;52.80;43.40;;;;;33.05;51.02;100472.78;5078996;28;8823;-75
2021/07/18 07:21:17;;;;;;;;;48.40;41.20;;;;;33.24;52.10;100465.59;5072323;28;8833;-75
2021/07/18 07:24:13;;;;;;;;;49.60;42.20;;;;;33.19;52.16;100466.28;5077123;28;8869;-76
2021/07/18 07:27:08;;;;;;;;;45.80;39.00;;;;;33.37;50.52;100466.13;5071918;28;8956;-76
2021/07/18 07:30:07;;;;;;;;;38.40;33.60;;;;;33.81;49.22;100470.22;5070865;28;8877;-76
2021/07/18 07:33:03;;;;;;;;;29.40;28.60;;;;;33.89;47.00;100465.63;5075521;28;8838;-76
2021/07/18 07:35:46;;;;;;;;;24.40;24.40;;;;;33.76;46.46;100465.19;5077625;28;8868;-77
2021/07/18 07:38:42;;;;;;;;;27.00;27.00;;;;;33.88;46.07;100469.78;5079202;28;8823;-76
2021/07/18 07:41:37;;;;;;;;;26.60;26.20;;;;;33.83;43.85;100462.72;5095542;28;8816;-75
2021/07/18 07:44:33;;;;;;;;;20.20;20.20;;;;;33.96;42.41;100465.25;5095042;28;8933;-76
2021/07/18 07:47:00;;;;;;;;;29.80;28.60;;;;;34.26;43.47;100461.00;5104414;28;8839;-77
2021/07/18 07:49:43;;;;;;;;;20.80;20.80;;;;;34.19;41.25;100467.16;5083486;28;8835;-78
2021/07/18 07:52:40;;;;;;;;;21.80;21.80;;;;;34.28;42.14;100469.91;5086585;28;8850;-74
2021/07/18 07:55:36;;;;;;;;;24.00;24.00;;;;;34.41;42.03;100460.97;5099302;28;8847;-76
2021/07/18 07:58:34;;;;;;;;;22.60;22.60;;;;;34.40;43.72;100465.13;5092129;28;8836;-76
2021/07/18 08:01:02;;;;;;;;;22.00;22.00;;;;;34.80;42.94;100469.25;5095926;28;8946;-75
2021/07/18 08:03:51;;;;;;;;;24.20;22.80;;;;;34.76;42.16;100474.44;5113410;28;8907;-76
2021/07/18 08:06:19;;;;;;;;;20.20;20.20;;;;;34.70;40.46;100474.38;5100581;28;9645;-77
2021/07/18 08:09:14;;;;;;;;;21.60;21.60;;;;;34.90;41.21;100482.22;5096492;28;8823;-77
2021/07/18 08:11:45;;;;;;;;;23.40;23.40;;;;;35.00;40.89;100474.22;5098434;28;8838;-76
2021/07/18 08:14:18;;;;;;;;;21.60;21.60;;;;;35.31;40.36;100473.47;5100245;28;8966;-76
2021/07/18 08:16:47;;;;;;;;;27.20;27.20;;;;;35.20;40.37;100477.03;5095337;28;8842;-76
2021/07/18 08:19:16;;;;;;;;;28.80;27.00;;;;;35.35;41.88;100471.97;5094484;28;9589;-77
2021/07/18 08:21:57;;;;;;;;;28.20;26.20;;;;;35.12;40.41;100473.03;5111769;28;9645;-76
2021/07/18 08:24:25;;;;;;;;;26.60;26.40;;;;;35.21;40.39;100466.34;5106774;28;8872;-76
2021/07/18 08:27:08;;;;;;;;;39.40;34.00;;;;;35.67;40.62;100466.25;5102062;28;8878;-76
2021/07/18 08:30:05;;;;;;;;;27.60;26.00;;;;;35.54;39.94;100472.41;5100732;28;8843;-81
2021/07/18 08:32:48;;;;;;;;;32.60;30.80;;;;;35.86;39.76;100472.38;5100841;28;8854;-77
2021/07/18 08:35:17;;;;;;;;;24.60;24.20;;;;;35.62;39.47;100473.50;5097634;28;8864;-78
2021/07/18 08:38:12;;;;;;;;;24.00;24.00;;;;;35.98;39.53;100471.19;5091188;28;8815;-77
2021/07/18 08:41:08;;;;;;;;;22.80;22.80;;;;;36.11;39.16;100473.59;5097236;28;8833;-77
2021/07/18 08:43:47;;;;;;;;;29.60;27.80;;;;;35.77;38.50;100467.59;5097998;28;8824;-77
2021/07/18 08:46:18;;;;;;;;;33.00;30.80;;;;;35.70;39.60;100462.31;5087232;28;8900;-77
2021/07/18 08:48:48;;;;;;;;;33.40;29.20;;;;;35.97;38.86;100460.19;5092492;28;8837;-77
2021/07/18 08:51:17;;;;;;;;;37.20;31.00;;;;;35.85;38.40;100465.06;5095235;28;8942;-79
2021/07/18 08:53:45;;;;;;;;;32.20;30.20;;;;;36.06;38.29;100460.78;5109065;28;8861;-78
2021/07/18 08:56:16;;;;;;;;;24.40;24.00;;;;;35.46;38.42;100456.91;5099714;28;8866;-79
2021/07/18 08:59:10;;;;;;;;;24.40;24.40;;;;;35.67;37.87;100456.81;5092831;28;8860;-78
2021/07/18 09:02:06;;;;;;;;;27.60;27.20;;;;;35.30;39.31;100460.41;5102056;28;9608;-78
2021/07/18 09:04:50;;;;;;;;;29.00;26.80;;;;;35.54;38.93;100458.03;5101176;28;8853;-79
2021/07/18 09:07:18;;;;;;;;;24.80;24.80;;;;;36.06;37.83;100455.03;5105384;28;8830;-78
2021/07/18 09:10:19;;;;;;;;;28.20;26.80;;;;;36.27;37.44;100464.31;5096620;28;8839;-78
2021/07/18 09:13:20;;;;;;;;;22.20;22.20;;;;;36.43;36.88;100457.84;5099685;28;9209;-77
2021/07/18 09:16:23;;;;;;;;;17.20;17.20;;;;;36.86;36.25;100452.00;5105475;28;8849;-78
2021/07/18 09:19:31;;;;;;;;;21.80;21.80;;;;;36.84;35.98;100453.78;5079793;28;8909;-79
2021/07/18 09:22:27;;;;;;;;;25.40;25.20;;;;;37.10;36.40;100457.28;5103775;28;8880;-77
2021/07/18 09:25:22;;;;;;;;;18.40;18.40;;;;;36.61;35.98;100450.84;5101973;28;8819;-75
2021/07/18 09:28:22;;;;;;;;;19.20;19.20;;;;;36.87;35.93;100459.31;5093015;28;9639;-80
2021/07/18 09:31:35;;;;;;;;;16.40;15.80;;;;;36.78;35.04;100455.88;5108556;28;8940;-76
2021/07/18 09:34:15;;;;;;;;;16.20;16.20;;;;;36.62;34.61;100455.28;5097260;28;8857;-76
2021/07/18 09:37:17;;;;;;;;;14.80;14.80;;;;;36.86;34.91;100454.88;5083096;28;8825;-79
2021/07/18 09:40:16;;;;;;;;;15.40;15.40;;;;;36.78;34.71;100459.53;5076388;28;8830;-75
2021/07/18 09:43:21;;;;;;;;;17.80;17.80;;;;;36.58;35.26;100469.19;5076887;28;8826;-75
2021/07/18 09:46:30;;;;;;;;;15.40;15.40;;;;;37.09;33.39;100458.59;5091949;28;8816;-76
2021/07/18 09:49:36;;;;;;;;;16.60;16.60;;;;;36.88;34.31;100463.78;5092627;28;8967;-76
2021/07/18 09:52:32;;;;;;;;;16.40;16.40;;;;;36.94;34.13;100458.03;5102928;28;8826;-75
2021/07/18 09:55:28;;;;;;;;;15.60;15.60;;;;;36.57;33.18;100464.69;5104407;28;8815;-75
2021/07/18 09:58:24;;;;;;;;;13.80;13.80;;;;;37.06;34.87;100455.97;5090014;28;8815;-75
2021/07/18 10:01:21;;;;;;;;;13.60;13.60;;;;;37.11;33.78;100455.16;5104575;28;8833;-76
2021/07/18 10:04:19;;;;;;;;;13.80;13.80;;;;;36.90;33.49;100457.50;5106757;28;8989;-75
2021/07/18 10:07:14;;;;;;;;;15.20;15.20;;;;;37.41;33.90;100461.25;5096889;28;9541;-74
2021/07/18 10:10:11;;;;;;;;;15.20;15.20;;;;;37.56;32.66;100450.25;5095265;28;8827;-75
2021/07/18 10:13:03;;;;;;;;;16.40;14.60;;;;;37.59;33.35;100443.44;5104114;28;8834;-74
2021/07/18 10:16:00;;;;;;;;;18.00;18.00;;;;;37.59;33.06;100463.63;5087080;28;8835;-76
2021/07/18 10:18:56;;;;;;;;;15.40;15.40;;;;;37.28;34.06;100453.13;5095028;28;9577;-75
2021/07/18 10:21:52;;;;;;;;;14.60;14.60;;;;;37.69;34.25;100449.72;5099383;28;8852;-75
2021/07/18 10:24:49;;;;;;;;;12.60;12.60;;;;;37.61;33.55;100445.78;5099246;28;8860;-75
2021/07/18 10:27:30;;;;;;;;;13.00;13.00;;;;;37.66;32.15;100445.00;5090178;28;8886;-75
2021/07/18 10:30:29;;;;;;;;;15.40;15.40;;;;;38.03;33.41;100451.25;5083370;28;8891;-76
2021/07/18 10:33:25;;;;;;;;;14.00;14.00;;;;;38.31;32.70;100445.41;5096761;28;8833;-75
2021/07/18 10:36:24;;;;;;;;;13.00;13.00;;;;;37.76;32.68;100446.31;5099027;28;8873;-74
2021/07/18 10:38:53;;;;;;;;;15.20;14.40;;;;;37.68;32.24;100451.81;5084269;28;8854;-76
2021/07/18 10:41:41;;;;;;;;;13.20;13.20;;;;;37.22;32.54;100444.47;5077584;28;8841;-75
2021/07/18 10:44:12;;;;;;;;;14.00;14.00;;;;;37.58;32.40;100453.41;5079250;28;8842;-76
2021/07/18 10:46:46;;;;;;;;;12.00;12.00;;;;;37.78;33.01;100455.25;5079051;28;8868;-73
2021/07/18 10:49:15;;;;;;;;;13.60;13.60;;;;;37.89;31.89;100457.34;5089240;28;8824;-74
2021/07/18 10:51:49;;;;;;;;;14.40;14.40;;;;;38.00;31.56;100455.19;5083635;28;8889;-75
2021/07/18 10:54:21;;;;;;;;;12.40;12.40;;;;;38.08;32.22;100446.78;5075527;28;8888;-75
2021/07/18 10:57:27;;;;;;;;;12.00;12.00;;;;;38.02;30.83;100443.13;5066020;28;8852;-77
2021/07/18 11:00:27;;;;;;;;;12.80;12.80;;;;;37.95;31.97;100438.66;5091858;28;8847;-78
2021/07/18 11:03:33;;;;;;;;;10.40;10.40;;;;;37.73;31.26;100427.16;5086954;28;8826;-77
2021/07/18 11:06:31;;;;;;;;;13.20;13.20;;;;;37.92;32.75;100418.75;5075106;28;8855;-77
2021/07/18 11:09:27;;;;;;;;;13.20;13.20;;;;;38.39;32.30;100434.88;5079558;28;9050;-76
2021/07/18 11:12:31;;;;;;;;;9.80;9.80;;;;;38.60;30.39;100428.75;5087392;28;8900;-76
2021/07/18 11:15:38;;;;;;;;;13.20;12.20;;;;;38.63;29.47;100425.56;5076811;28;8900;-77
2021/07/18 11:18:14;;;;;;;;;10.00;10.00;;;;;38.46;30.26;100418.31;5072278;28;8880;-77
2021/07/18 11:20:50;;;;;;;;;10.20;10.20;;;;;38.63;30.55;100416.13;5072846;28;8881;-77
2021/07/18 11:23:28;;;;;;;;;11.60;11.60;;;;;38.33;30.00;100416.78;5076215;28;8834;-77
2021/07/18 11:26:05;;;;;;;;;10.20;10.20;;;;;38.32;30.30;100402.88;5076532;28;8876;-76
2021/07/18 11:29:02;;;;;;;;;13.60;13.60;;;;;37.73;31.47;100413.53;5078174;28;9554;-76
2021/07/18 11:31:44;;;;;;;;;11.40;11.40;;;;;37.48;31.33;100403.06;5085802;28;8872;-75
2021/07/18 11:34:15;;;;;;;;;11.60;11.60;;;;;37.48;31.14;100405.94;5077541;28;8856;-75
2021/07/18 11:37:12;;;;;;;;;10.40;10.40;;;;;37.96;31.37;100401.94;5074846;28;9622;-75
2021/07/18 11:39:42;;;;;;;;;10.80;10.80;;;;;38.04;31.06;100397.22;5079169;28;8828;-75
2021/07/18 11:42:39;;;;;;;;;10.80;10.80;;;;;37.55;30.60;100391.00;5087010;28;8899;-76
2021/07/18 11:45:34;;;;;;;;;9.40;9.40;;;;;38.02;30.78;100391.16;5087819;28;8823;-76
2021/07/18 11:48:30;;;;;;;;;11.00;11.00;;;;;38.21;30.89;100397.94;5069325;28;9555;-76
2021/07/18 11:51:18;;;;;;;;;11.00;11.00;;;;;38.49;30.98;100400.69;5075161;28;8884;-75
2021/07/18 11:54:15;;;;;;;;;11.20;11.20;;;;;38.60;30.30;100402.75;5081065;28;8845;-76
2021/07/18 11:57:16;;;;;;;;;9.80;9.80;;;;;38.93;30.66;100401.78;5074282;28;8845;-76
2021/07/18 12:00:14;;;;;;;;;12.40;12.40;;;;;39.37;30.47;100402.75;5090042;28;9558;-76
2021/07/18 12:03:11;;;;;;;;;10.80;10.80;;;;;39.39;30.56;100405.91;5067640;28;9570;-75
2021/07/18 12:05:52;;;;;;;;;11.80;11.80;;;;;38.91;31.55;100407.31;5075361;28;8838;-76
2021/07/18 12:08:50;;;;;;;;;12.40;12.40;;;;;38.54;30.43;100407.78;5092492;28;8852;-77
2021/07/18 12:11:29;;;;;;;;;10.80;10.80;;;;;38.22;30.35;100402.38;5072601;28;8838;-77
2021/07/18 12:14:26;;;;;;;;;8.80;8.80;;;;;37.68;30.71;100396.22;5061506;28;8838;-78
2021/07/18 12:17:15;;;;;;;;;10.80;10.80;;;;;37.65;31.56;100406.72;5074807;28;8897;-76
2021/07/18 12:19:54;;;;;;;;;11.20;11.20;;;;;37.14;32.21;100402.25;5074725;28;8846;-75
2021/07/18 12:22:24;;;;;;;;;12.80;12.80;;;;;37.08;32.44;100390.72;5069597;28;8847;-77
2021/07/18 12:25:20;;;;;;;;;15.00;14.20;;;;;37.13;33.16;100389.94;5072810;28;8849;-78
2021/07/18 12:27:49;;;;;;;;;13.00;13.00;;;;;37.55;32.82;100393.88;5089068;28;9578;-76
2021/07/18 12:30:22;;;;;;;;;10.60;10.40;;;;;37.64;31.98;100390.72;5091479;28;9546;-76
2021/07/18 12:32:51;;;;;;;;;12.20;12.20;;;;;38.09;31.96;100385.63;5071863;28;9615;-77
2021/07/18 12:35:40;;;;;;;;;11.40;11.40;;;;;38.33;29.86;100387.13;5074638;28;8913;-77
2021/07/18 12:38:08;;;;;;;;;11.40;11.40;;;;;38.03;30.55;100389.84;5075176;28;8853;-76
2021/07/18 12:40:50;;;;;;;;;11.80;11.80;;;;;38.30;30.94;100388.97;5093910;28;8843;-77
2021/07/18 12:43:48;;;;;;;;;11.80;11.80;;;;;38.34;30.95;100380.84;5081726;28;8889;-75
2021/07/18 12:46:25;;;;;;;;;11.40;11.40;;;;;38.60;30.47;100382.53;5095124;28;8942;-75
2021/07/18 12:49:08;;;;;;;;;14.00;14.00;;;;;38.95;30.83;100378.88;5095702;28;8857;-75
2021/07/18 12:51:37;;;;;;;;;12.80;12.80;;;;;39.13;29.57;100383.22;5102985;28;8937;-76
2021/07/18 12:54:09;;;;;;;;;15.00;15.00;;;;;39.39;29.56;100379.88;5111508;28;8841;-75
2021/07/18 12:57:05;;;;;;;;;13.40;13.40;;;;;39.77;30.55;100382.94;5100060;28;8947;-75
2021/07/18 13:00:05;;;;;;;;;12.00;12.00;;;;;39.85;29.89;100373.09;5099429;28;8855;-76
2021/07/18 13:03:19;;;;;;;;;12.80;12.80;;;;;39.97;29.51;100371.66;5093908;28;8835;-76
2021/07/18 13:05:47;;;;;;;;;11.60;11.60;;;;;39.38;29.20;100373.28;5094482;28;8901;-76
2021/07/18 13:08:34;;;;;;;;;13.00;13.00;;;;;38.56;29.03;100361.78;5076607;28;8828;-76
2021/07/18 13:11:02;;;;;;;;;10.80;10.80;;;;;38.53;30.52;100365.75;5110190;28;8833;-76